^^
Grace C. Lehan Memorial Weather Station Historical Data
Daily Summary for March 9, 2022 Units:  Both    English   Metric
Daily Weekly Monthly Yearly
  High: Low: Average:
Temperature: 80 °F /  26.7 °C 79.5 °F /  26.4 °C 79.7 °F /  26.5 °C
Dew Point: 75.1 °F /  23.9 °C 74.7 °F /  23.7 °C 74.9 °F /  23.8 °C
Humidity: 86% 84% 86%
Wind Speed: 0.5mph /  0.8km/h - 0.1mph /  0.2km/h
Wind Gust: 5mph /  8km/h - -
Wind- - WSW
Pressure: 29.85 in /  1010.7 hPa 29.82 in /  1009.7 hPa -
Precipitation: 0.00 in /  0 mm    
 
 
Tabular Data for March 9, 2022
Time Temperature Dew Point Pressure Wind Wind Speed Wind Gust Humidity Rainfall Rate (Hourly) solar
00:00 80 °F /  26.7 °C 74.7 °F /  23.7 °C 29.85in /  1010.7hPa Calm   1mph /  1.6km/h 84% 0.00in /  0mm 0 W/m2
00:09 79.9 °F /  26.6 °C 74.7 °F /  23.7 °C 29.85in /  1010.7hPa Calm     84% 0.00in /  0mm 0 W/m2
00:14 79.9 °F /  26.6 °C 74.9 °F /  23.8 °C 29.85in /  1010.7hPa Calm     84.7% 0.00in /  0mm 0 W/m2
00:19 79.8 °F /  26.6 °C 74.9 °F /  23.8 °C 29.85in /  1010.7hPa Calm     85% 0.00in /  0mm 0 W/m2
00:24 79.8 °F /  26.6 °C 74.9 °F /  23.8 °C 29.85in /  1010.7hPa Calm     85% 0.00in /  0mm 0 W/m2
00:29 79.8 °F /  26.6 °C 74.9 °F /  23.8 °C 29.85in /  1010.7hPa WSW 0.3mph /  0.5km/h 5mph /  8km/h 85% 0.00in /  0mm 0 W/m2
00:34 79.8 °F /  26.6 °C 74.9 °F /  23.8 °C 29.84in /  1010.4hPa Calm   5mph /  8km/h 85% 0.00in /  0mm 0 W/m2
00:39 79.8 °F /  26.6 °C 74.9 °F /  23.8 °C 29.84in /  1010.4hPa Calm   1mph /  1.6km/h 85% 0.00in /  0mm 0 W/m2
00:44 79.8 °F /  26.6 °C 74.9 °F /  23.8 °C 29.84in /  1010.4hPa SW 0.1mph /  0.2km/h 2mph /  3.2km/h 85% 0.00in /  0mm 0 W/m2
00:49 79.7 °F /  26.5 °C 74.8 °F /  23.8 °C 29.84in /  1010.4hPa SW 0.5mph /  0.8km/h 4mph /  6.4km/h 85% 0.00in /  0mm 0 W/m2
00:54 79.7 °F /  26.5 °C 74.8 °F /  23.8 °C 29.84in /  1010.4hPa SW 0.2mph /  0.3km/h 4mph /  6.4km/h 85% 0.00in /  0mm 0 W/m2
00:59 79.7 °F /  26.5 °C 74.8 °F /  23.8 °C 29.84in /  1010.4hPa Calm   4mph /  6.4km/h 85% 0.00in /  0mm 0 W/m2
01:04 79.7 °F /  26.5 °C 74.8 °F /  23.8 °C 29.84in /  1010.4hPa SW 0.2mph /  0.3km/h 4mph /  6.4km/h 85% 0.00in /  0mm 0 W/m2
01:09 79.7 °F /  26.5 °C 74.8 °F /  23.8 °C 29.84in /  1010.4hPa SW 0.2mph /  0.3km/h 3mph /  4.8km/h 85% 0.00in /  0mm 0 W/m2
01:14 79.7 °F /  26.5 °C 74.8 °F /  23.8 °C 29.84in /  1010.4hPa Calm   3mph /  4.8km/h 85% 0.00in /  0mm 0 W/m2
01:19 79.7 °F /  26.5 °C 74.8 °F /  23.8 °C 29.83in /  1010hPa SW 0.1mph /  0.2km/h 3mph /  4.8km/h 85% 0.00in /  0mm 0 W/m2
01:24 79.7 °F /  26.5 °C 74.8 °F /  23.8 °C 29.83in /  1010hPa SW 0.3mph /  0.5km/h 4mph /  6.4km/h 85% 0.00in /  0mm 0 W/m2
01:29 79.7 °F /  26.5 °C 74.8 °F /  23.8 °C 29.83in /  1010hPa Calm   4mph /  6.4km/h 85% 0.00in /  0mm 0 W/m2
01:34 79.7 °F /  26.5 °C 74.8 °F /  23.8 °C 29.83in /  1010hPa SW 0.1mph /  0.2km/h 4mph /  6.4km/h 85% 0.00in /  0mm 0 W/m2
01:39 79.6 °F /  26.4 °C 74.7 °F /  23.7 °C 29.83in /  1010hPa Calm   2mph /  3.2km/h 85% 0.00in /  0mm 0 W/m2
01:44 79.6 °F /  26.4 °C 74.7 °F /  23.7 °C 29.83in /  1010hPa Calm   2mph /  3.2km/h 85% 0.00in /  0mm 0 W/m2
01:49 79.6 °F /  26.4 °C 75 °F /  23.9 °C 29.83in /  1010hPa Calm   2mph /  3.2km/h 85.9% 0.00in /  0mm 0 W/m2
01:54 79.6 °F /  26.4 °C 75.1 °F /  23.9 °C 29.83in /  1010hPa Calm   2mph /  3.2km/h 86% 0.00in /  0mm 0 W/m2
01:59 79.6 °F /  26.4 °C 75.1 °F /  23.9 °C 29.83in /  1010hPa Calm   2mph /  3.2km/h 86% 0.00in /  0mm 0 W/m2
02:04 79.6 °F /  26.4 °C 75.1 °F /  23.9 °C 29.83in /  1010hPa Calm   2mph /  3.2km/h 86% 0.00in /  0mm 0 W/m2
02:09 79.6 °F /  26.4 °C 75.1 °F /  23.9 °C 29.83in /  1010hPa Calm   1mph /  1.6km/h 86% 0.00in /  0mm 0 W/m2
02:14 79.6 °F /  26.4 °C 75.1 °F /  23.9 °C 29.82in /  1009.7hPa Calm   1mph /  1.6km/h 86% 0.00in /  0mm 0 W/m2
02:19 79.6 °F /  26.4 °C 75.1 °F /  23.9 °C 29.82in /  1009.7hPa Calm   1mph /  1.6km/h 86% 0.00in /  0mm 0 W/m2
02:24 79.6 °F /  26.4 °C 75 °F /  23.9 °C 29.82in /  1009.7hPa WSW 0.3mph /  0.5km/h 3mph /  4.8km/h 86% 0.00in /  0mm 0 W/m2
02:29 79.5 °F /  26.4 °C 75 °F /  23.9 °C 29.82in /  1009.7hPa Calm   3mph /  4.8km/h 86% 0.00in /  0mm 0 W/m2
02:34 79.5 °F /  26.4 °C 75 °F /  23.9 °C 29.82in /  1009.7hPa Calm   3mph /  4.8km/h 86% 0.00in /  0mm 0 W/m2
02:39 79.5 °F /  26.4 °C 75 °F /  23.9 °C 29.82in /  1009.7hPa WSW 0.1mph /  0.2km/h 2mph /  3.2km/h 86% 0.00in /  0mm 0 W/m2
02:44 79.6 °F /  26.4 °C 75 °F /  23.9 °C 29.82in /  1009.7hPa Calm   2mph /  3.2km/h 86% 0.00in /  0mm 0 W/m2
02:49 79.6 °F /  26.4 °C 75.1 °F /  23.9 °C 29.82in /  1009.7hPa Calm   2mph /  3.2km/h 86% 0.00in /  0mm 0 W/m2
02:54 79.6 °F /  26.4 °C 75.1 °F /  23.9 °C 29.82in /  1009.7hPa Calm   2mph /  3.2km/h 86% 0.00in /  0mm 0 W/m2
02:59 79.6 °F /  26.4 °C 75.1 °F /  23.9 °C 29.82in /  1009.7hPa Calm   2mph /  3.2km/h 86% 0.00in /  0mm 0 W/m2
03:04 79.6 °F /  26.4 °C 75.1 °F /  23.9 °C 29.82in /  1009.7hPa Calm   2mph /  3.2km/h 86% 0.00in /  0mm 0 W/m2
03:09 79.6 °F /  26.4 °C 75.1 °F /  23.9 °C 29.82in /  1009.7hPa Calm     86% 0.00in /  0mm 0 W/m2
03:14 79.6 °F /  26.4 °C 75.1 °F /  23.9 °C 29.82in /  1009.7hPa Calm   1mph /  1.6km/h 86% 0.00in /  0mm 0 W/m2
03:19 79.6 °F /  26.4 °C 75 °F /  23.9 °C 29.82in /  1009.7hPa Calm   1mph /  1.6km/h 86% 0.00in /  0mm 0 W/m2
03:24 79.5 °F /  26.4 °C 75 °F /  23.9 °C 29.82in /  1009.7hPa WSW 0.1mph /  0.2km/h 2mph /  3.2km/h 86% 0.00in /  0mm 0 W/m2
03:29 79.5 °F /  26.4 °C 74.9 °F /  23.8 °C 29.82in /  1009.7hPa Calm   2mph /  3.2km/h 86% 0.00in /  0mm 0 W/m2
03:33 79.5 °F /  26.4 °C 74.9 °F /  23.8 °C 29.82in /  1009.7hPa Calm   2mph /  3.2km/h 86% 0.00in /  0mm 0 W/m2
Hartford County Weather
Compliments of Weather Underground - 2 mb